Weather at Cancún International Airport

Public forecast

Using degrees Celsius for public forecast. Weather courtesy of forecast.io.

Current aviation weather report (METAR) for Cancún International Airport

Retrieved 2021/09/27 05:48 UTC (1 hour ago):

MMUN 270548Z 00000KT 7SM FEW015 25/24 A3002 RMK SLP167 57002 911 8/500

Aviation forecast (TAF) for Cancún International Airport

Forecast is more than 12 hours old.

Retrieved 2021/09/24 12:15 UTC (3 days ago):

TAF MMUN 241110Z 2412/2518 00000KT 6SM HZ SCT015 SCT080 BKN250 TX28/2422Z TN23/2412Z TEMPO 2415/2418 6SM -RA BKN015 FM241800 13010KT 6SM HZ BKN020 BKN090 BKN250 TEMPO 2418/2422 6SM TSRA BKN015CB FM250300 03005KT 6SM HZ SCT015 BKN080 FM251600 13005KT 6SM HZ SCT015 SCT250